Time;durP1;ratioP1;P1;durP2;ratioP2;P2;SDS_P1;SDS_P2;PMS_P1;PMS_P2;Temp;Humidity;BMP_temperature;BMP_pressure;BME280_temperature;BME280_humidity;BME280_pressure;Samples;Min_cycle;Max_cycle;Signal;HPM_P1;HPM_P2
2022/04/03 00:00:38;;;;;;;2.80;1.63;;;;;;;8.26;70.96;93638.91;6146179;23;20186;-85
2022/04/03 00:03:05;;;;;;;2.43;1.63;;;;;;;8.26;70.55;93636.31;6146838;23;20178;-80
2022/04/03 00:05:37;;;;;;;4.37;1.70;;;;;;;8.26;70.09;93646.66;6146643;23;20192;-82
2022/04/03 00:08:04;;;;;;;1.70;1.53;;;;;;;8.22;69.58;93638.59;6148945;23;20698;-82
2022/04/03 00:10:33;;;;;;;2.07;1.40;;;;;;;8.15;70.71;93626.78;6146463;23;20547;-81
2022/04/03 00:12:59;;;;;;;3.10;1.70;;;;;;;8.12;71.68;93635.00;6146455;23;20234;-82
2022/04/03 00:15:26;;;;;;;3.07;1.60;;;;;;;7.98;73.09;93624.91;6146324;23;20531;-82
2022/04/03 00:17:53;;;;;;;3.20;1.77;;;;;;;7.98;73.88;93626.69;6146745;23;20178;-83
2022/04/03 00:20:20;;;;;;;2.50;1.63;;;;;;;7.87;75.07;93637.84;6145417;23;20249;-85
2022/04/03 00:22:49;;;;;;;2.23;1.77;;;;;;;7.80;76.01;93619.84;6146218;23;20816;-83
2022/04/03 00:25:18;;;;;;;5.03;1.93;;;;;;;7.84;77.95;93631.31;6145790;23;20528;-83
2022/04/03 00:27:46;;;;;;;2.43;1.70;;;;;;;7.84;78.80;93620.97;6145839;23;20651;-82
2022/04/03 00:30:13;;;;;;;2.40;1.60;;;;;;;7.87;78.34;93620.53;6146236;23;20176;-82
2022/04/03 00:32:41;;;;;;;3.40;1.70;;;;;;;7.87;78.19;93610.19;6145890;23;20172;-83
2022/04/03 00:35:08;;;;;;;2.77;1.87;;;;;;;7.90;78.30;93614.13;6146352;23;20171;-83
2022/04/03 00:37:35;;;;;;;3.23;2.20;;;;;;;7.90;76.81;93620.09;6144944;23;20171;-83
2022/04/03 00:40:04;;;;;;;4.07;2.10;;;;;;;7.87;77.70;93624.91;6143841;23;20187;-82
2022/04/03 00:42:34;;;;;;;3.33;2.20;;;;;;;7.78;79.05;93608.97;6142042;23;20603;-84
2022/04/03 00:45:02;;;;;;;4.57;2.73;;;;;;;7.83;79.48;93624.56;6145593;23;20159;-83
2022/04/03 00:47:30;;;;;;;5.37;2.63;;;;;;;7.78;81.12;93608.97;6145795;23;20191;-83
2022/04/03 00:49:58;;;;;;;4.97;2.60;;;;;;;7.82;80.85;93622.22;6145932;23;20195;-82
2022/04/03 00:52:25;;;;;;;6.33;2.70;;;;;;;7.81;81.44;93623.22;6145618;23;20254;-82
2022/04/03 00:54:52;;;;;;;12.33;2.87;;;;;;;7.89;81.10;93630.63;6146964;23;20179;-82
2022/04/03 00:57:22;;;;;;;4.13;2.77;;;;;;;7.85;81.16;93635.47;6145485;23;20191;-83
2022/04/03 00:59:50;;;;;;;7.40;3.27;;;;;;;7.87;81.80;93643.00;6146246;23;20175;-82
2022/04/03 01:02:18;;;;;;;10.27;3.13;;;;;;;7.69;81.73;93651.69;6146476;23;20199;-80
2022/04/03 01:04:45;;;;;;;3.83;2.17;;;;;;;7.45;71.95;93652.66;6146373;23;20178;-82
2022/04/03 01:07:12;;;;;;;5.03;2.20;;;;;;;7.30;69.75;93653.09;6146092;23;20544;-82
2022/04/03 01:09:45;;;;;;;3.60;1.97;;;;;;;7.00;68.68;93644.63;6146122;23;20225;-82
2022/04/03 01:12:11;;;;;;;2.83;1.90;;;;;;;6.98;69.91;93656.19;6147538;23;20198;-82
2022/04/03 01:14:40;;;;;;;4.70;2.30;;;;;;;6.91;71.99;93647.72;6146776;23;20176;-83
2022/04/03 01:17:10;;;;;;;4.40;2.37;;;;;;;6.91;72.16;93639.97;6147161;23;20517;-83
2022/04/03 01:19:52;;;;;;;6.30;2.43;;;;;;;6.83;71.32;93639.28;6147802;23;20248;-85
2022/04/03 01:22:19;;;;;;;3.13;1.90;;;;;;;6.61;72.26;93625.28;6146839;23;20164;-86
2022/04/03 01:24:48;;;;;;;3.57;2.00;;;;;;;6.80;72.78;93644.09;6146581;23;20168;-83
2022/04/03 01:27:16;;;;;;;3.73;1.90;;;;;;;6.73;74.80;93635.66;6147273;23;20826;-83
2022/04/03 01:29:42;;;;;;;6.87;2.00;;;;;;;6.79;75.44;93635.56;6147370;23;20179;-83
2022/04/03 01:32:10;;;;;;;3.00;1.87;;;;;;;6.97;73.85;93632.13;6147226;23;20175;-84
2022/04/03 01:34:36;;;;;;;4.33;1.87;;;;;;;7.02;74.44;93626.28;6146954;23;20167;-85
2022/04/03 01:37:04;;;;;;;5.13;1.93;;;;;;;6.89;73.83;93639.41;6147282;23;20232;-85
2022/04/03 01:39:31;;;;;;;2.57;1.83;;;;;;;6.93;74.96;93654.22;6146725;23;20171;-84
2022/04/03 01:41:58;;;;;;;4.47;1.70;;;;;;;7.12;73.82;93653.19;6147366;23;20171;-84
2022/04/03 01:44:40;;;;;;;2.90;1.90;;;;;;;7.17;72.95;93657.66;6146392;23;20769;-83
2022/04/03 01:47:07;;;;;;;3.60;1.80;;;;;;;7.07;74.04;93644.53;6147329;23;20175;-84
2022/04/03 01:49:35;;;;;;;4.73;2.23;;;;;;;7.06;73.73;93630.81;6146550;23;20203;-83
2022/04/03 01:52:16;;;;;;;6.93;2.20;;;;;;;6.91;74.17;93637.38;6147198;23;20639;-83
2022/04/03 01:54:43;;;;;;;5.20;1.93;;;;;;;6.89;74.26;93636.84;6146897;23;20171;-84
2022/04/03 01:57:10;;;;;;;4.40;1.90;;;;;;;6.87;75.47;93625.94;6146879;23;20167;-81
2022/04/03 01:59:37;;;;;;;4.60;1.90;;;;;;;6.99;76.02;93617.19;6146713;23;20183;-81
2022/04/03 02:02:05;;;;;;;2.53;1.70;;;;;;;6.77;76.57;93613.56;6147385;23;20175;-84
2022/04/03 02:04:32;;;;;;;3.80;1.83;;;;;;;6.89;76.08;93624.72;6146233;23;20182;-79
2022/04/03 02:06:59;;;;;;;5.23;1.77;;;;;;;6.90;75.10;93618.53;6143792;23;20732;-80
2022/04/03 02:09:26;;;;;;;4.43;1.80;;;;;;;6.98;75.80;93614.84;6143489;23;20175;-80
2022/04/03 02:11:54;;;;;;;4.40;1.70;;;;;;;6.99;75.92;93616.41;6146574;23;20168;-80
2022/04/03 02:14:24;;;;;;;5.40;1.90;;;;;;;6.98;75.49;93594.97;6146046;23;20171;-81
2022/04/03 02:16:53;;;;;;;2.77;1.77;;;;;;;7.16;75.48;93614.75;6146800;23;20176;-80
2022/04/03 02:19:22;;;;;;;1.73;1.63;;;;;;;7.13;74.87;93607.47;6146160;23;20233;-81
2022/04/03 02:21:49;;;;;;;2.97;1.90;;;;;;;7.05;75.29;93597.44;6146411;23;20997;-80
2022/04/03 02:24:16;;;;;;;2.77;1.80;;;;;;;7.05;75.13;93603.41;6145873;23;20175;-80
2022/04/03 02:26:43;;;;;;;3.47;1.90;;;;;;;7.02;76.04;93592.72;6144722;23;20180;-81
2022/04/03 02:29:10;;;;;;;3.93;1.63;;;;;;;6.98;75.74;93587.25;6146141;23;20160;-80
2022/04/03 02:31:37;;;;;;;4.67;2.07;;;;;;;7.13;76.25;93600.50;6146501;23;20168;-81
2022/04/03 02:34:04;;;;;;;3.33;1.70;;;;;;;7.11;75.74;93605.09;6146452;23;20546;-80
2022/04/03 02:36:33;;;;;;;3.13;1.80;;;;;;;7.07;75.18;93592.88;6146591;23;20171;-82
2022/04/03 02:38:59;;;;;;;4.33;1.80;;;;;;;7.04;75.22;93624.31;6146291;23;20172;-83
2022/04/03 02:41:27;;;;;;;4.57;2.40;;;;;;;7.10;74.70;93618.25;6147144;23;20187;-82
2022/04/03 02:43:54;;;;;;;3.73;2.40;;;;;;;6.99;75.53;93632.69;6147787;23;20168;-82
2022/04/03 02:46:21;;;;;;;4.27;2.60;;;;;;;6.99;76.50;93624.16;6148148;23;20196;-82
2022/04/03 02:48:47;;;;;;;9.07;4.13;;;;;;;7.03;75.65;93626.09;6146759;23;20495;-81
2022/04/03 02:51:14;;;;;;;12.83;7.30;;;;;;;7.10;74.60;93633.75;6146535;23;20214;-82
2022/04/03 02:53:43;;;;;;;21.63;12.17;;;;;;;6.97;75.56;93626.19;6146057;23;20152;-82
2022/04/03 02:56:09;;;;;;;17.97;7.77;;;;;;;7.04;75.44;93626.88;6146511;23;20171;-83
2022/04/03 02:58:36;;;;;;;13.93;6.20;;;;;;;7.00;75.93;93625.75;6146425;23;20225;-81
2022/04/03 03:01:04;;;;;;;4.33;3.20;;;;;;;7.04;74.66;93630.22;6147383;23;20909;-84
2022/04/03 03:03:31;;;;;;;7.27;3.97;;;;;;;7.01;75.09;93627.31;6146422;23;20168;-84
2022/04/03 03:05:58;;;;;;;10.10;4.93;;;;;;;7.01;75.54;93628.13;6147076;23;20175;-84
2022/04/03 03:08:25;;;;;;;3.67;2.30;;;;;;;7.13;75.23;93625.56;6146822;23;20176;-86
2022/04/03 03:11:06;;;;;;;3.40;2.10;;;;;;;7.12;74.41;93627.34;6147043;23;20168;-84
2022/04/03 03:13:35;;;;;;;5.27;1.93;;;;;;;7.12;74.45;93629.16;6146876;23;20246;-85
2022/04/03 03:16:02;;;;;;;2.20;1.90;;;;;;;7.22;74.43;93630.16;6147343;23;20160;-87
2022/04/03 03:18:29;;;;;;;3.07;1.83;;;;;;;7.32;73.61;93632.22;6145955;22;20171;-85
2022/04/03 03:20:56;;;;;;;3.00;1.90;;;;;;;7.40;72.99;93642.22;6148014;23;20175;-86
2022/04/03 03:23:23;;;;;;;4.23;1.93;;;;;;;7.28;73.47;93618.16;6147349;23;20225;-87
2022/04/03 03:25:50;;;;;;;4.50;2.40;;;;;;;7.47;73.09;93642.13;6146991;23;20171;-83
2022/04/03 03:28:18;;;;;;;3.07;2.00;;;;;;;7.47;73.20;93648.06;6146663;23;20194;-83
2022/04/03 03:30:45;;;;;;;3.13;2.30;;;;;;;7.43;73.63;93644.34;6145747;23;20245;-83
2022/04/03 03:33:12;;;;;;;3.37;2.30;;;;;;;7.48;73.80;93649.63;6143224;23;20175;-82
2022/04/03 03:35:39;;;;;;;2.47;1.73;;;;;;;7.34;73.77;93651.66;6145341;23;20187;-82
2022/04/03 03:38:07;;;;;;;3.40;2.50;;;;;;;7.11;75.81;93663.72;6146187;23;20521;-82
2022/04/03 03:40:38;;;;;;;3.20;2.20;;;;;;;7.03;75.66;93645.97;6146468;23;20603;-84
2022/04/03 03:43:05;;;;;;;5.33;3.13;;;;;;;7.17;76.36;93657.66;6146926;23;20182;-84
2022/04/03 03:45:37;;;;;;;4.43;2.90;;;;;;;7.21;75.85;93666.56;6147225;23;20168;-82
2022/04/03 03:48:05;;;;;;;3.90;2.57;;;;;;;7.26;76.35;93664.09;6146966;23;20206;-82
2022/04/03 03:50:32;;;;;;;5.77;2.70;;;;;;;7.17;76.15;93647.34;6149417;23;20156;-82
2022/04/03 03:52:58;;;;;;;5.67;2.70;;;;;;;7.28;75.51;93673.19;6147033;23;20163;-81
2022/04/03 03:55:25;;;;;;;7.97;3.40;;;;;;;7.25;76.19;93680.59;6146519;23;20172;-81
2022/04/03 03:57:52;;;;;;;4.93;2.90;;;;;;;7.12;76.56;93681.59;6146808;23;20174;-81
2022/04/03 04:00:19;;;;;;;4.80;2.80;;;;;;;6.95;77.08;93664.34;6146371;23;20174;-81
2022/04/03 04:02:48;;;;;;;9.33;3.07;;;;;;;6.91;78.22;93689.03;6146856;23;20171;-81
2022/04/03 04:05:14;;;;;;;5.97;2.80;;;;;;;6.91;77.32;93697.56;6145616;23;20642;-80
2022/04/03 04:07:43;;;;;;;5.70;3.67;;;;;;;6.92;75.71;93693.19;6145737;23;20816;-80
2022/04/03 04:10:12;;;;;;;3.77;2.40;;;;;;;6.85;74.89;93693.28;6146499;23;20175;-80
2022/04/03 04:12:40;;;;;;;2.63;2.10;;;;;;;6.78;73.68;93701.09;6145080;23;20211;-81
2022/04/03 04:15:07;;;;;;;3.23;1.90;;;;;;;6.79;73.16;93705.28;6146312;23;20171;-82
2022/04/03 04:17:35;;;;;;;2.50;1.67;;;;;;;6.85;72.99;93712.16;6145774;23;20237;-83
2022/04/03 04:20:05;;;;;;;1.90;1.60;;;;;;;6.83;72.49;93716.75;6145977;23;20172;-83
2022/04/03 04:22:32;;;;;;;1.67;1.30;;;;;;;6.85;71.90;93719.09;6146785;23;20156;-84
2022/04/03 04:24:59;;;;;;;2.60;1.30;;;;;;;6.90;71.78;93723.63;6146503;23;20168;-84
2022/04/03 04:27:26;;;;;;;2.63;1.10;;;;;;;6.88;70.88;93723.84;6145850;23;20198;-83
2022/04/03 04:29:52;;;;;;;1.63;1.30;;;;;;;6.94;71.21;93727.34;6146652;23;20658;-83
2022/04/03 04:32:21;;;;;;;1.27;1.17;;;;;;;7.01;71.35;93736.59;6146324;23;20175;-83
2022/04/03 04:34:48;;;;;;;1.53;1.20;;;;;;;6.97;71.74;93745.78;6146368;23;20171;-83
2022/04/03 04:37:17;;;;;;;2.87;1.70;;;;;;;6.91;72.02;93746.63;6145766;23;20630;-83
2022/04/03 04:39:46;;;;;;;4.60;2.07;;;;;;;6.88;73.40;93743.69;6145106;23;20889;-80
2022/04/03 04:42:13;;;;;;;5.23;2.30;;;;;;;6.75;76.14;93749.81;6145144;23;20155;-80
2022/04/03 04:44:40;;;;;;;3.43;2.40;;;;;;;6.79;76.17;93746.59;6144530;23;20205;-81
2022/04/03 04:47:07;;;;;;;3.10;2.27;;;;;;;6.75;76.37;93757.56;6145522;23;20272;-82
2022/04/03 04:49:34;;;;;;;6.17;3.23;;;;;;;6.54;77.14;93750.25;6144998;23;20207;-82
2022/04/03 04:52:01;;;;;;;6.50;3.53;;;;;;;6.51;78.21;93751.47;6145724;23;20178;-82
2022/04/03 04:54:30;;;;;;;8.60;3.77;;;;;;;6.32;79.55;93747.28;6143859;23;20646;-82
2022/04/03 04:56:57;;;;;;;8.63;3.67;;;;;;;6.27;78.57;93758.25;6143885;23;20259;-80
2022/04/03 04:59:24;;;;;;;5.47;3.40;;;;;;;6.50;76.56;93755.06;6143102;23;20178;-81
2022/04/03 05:01:51;;;;;;;5.77;3.23;;;;;;;6.68;75.77;93751.69;6152595;23;20175;-81
2022/04/03 05:04:18;;;;;;;1.83;1.67;;;;;;;6.85;74.61;93760.41;6147667;23;20201;-81
2022/04/03 05:06:45;;;;;;;2.33;1.50;;;;;;;6.96;72.02;93770.00;6145151;23;20226;-80
2022/04/03 05:09:13;;;;;;;2.60;2.10;;;;;;;7.03;72.11;93772.53;6144944;23;20178;-81
2022/04/03 05:11:41;;;;;;;6.53;3.47;;;;;;;6.95;72.50;93775.41;6144776;23;20240;-81
2022/04/03 05:14:10;;;;;;;8.30;4.50;;;;;;;6.82;75.15;93776.34;6145260;23;20231;-80
2022/04/03 05:16:38;;;;;;;4.50;3.23;;;;;;;6.73;76.97;93780.22;6145063;23;20175;-83
2022/04/03 05:19:04;;;;;;;5.50;3.50;;;;;;;6.63;77.72;93782.53;6146110;23;20251;-76
2022/04/03 05:21:31;;;;;;;8.63;3.60;;;;;;;6.59;78.25;93784.75;6142519;23;20174;-74
2022/04/03 05:23:58;;;;;;;6.87;3.63;;;;;;;6.59;77.21;93795.06;6143845;23;20498;-74
2022/04/03 05:26:25;;;;;;;9.40;4.83;;;;;;;6.67;75.86;93784.44;6142936;23;20214;-74
2022/04/03 05:28:53;;;;;;;6.23;3.60;;;;;;;6.53;76.08;93800.28;6144048;23;20168;-74
2022/04/03 05:31:20;;;;;;;7.33;4.23;;;;;;;6.46;76.88;93786.69;6142617;23;20180;-74
2022/04/03 05:33:47;;;;;;;6.80;3.50;;;;;;;6.64;74.65;93790.03;6143478;23;20175;-74
2022/04/03 05:36:13;;;;;;;13.03;2.60;;;;;;;6.76;73.14;93800.44;6142425;23;20163;-74
2022/04/03 05:38:40;;;;;;;3.03;2.40;;;;;;;6.85;72.09;93804.31;6142873;23;20167;-74
2022/04/03 05:41:07;;;;;;;5.17;2.20;;;;;;;6.98;70.47;93803.38;6142736;23;20172;-73
2022/04/03 05:43:34;;;;;;;3.20;2.53;;;;;;;7.07;70.53;93805.44;6142185;23;20236;-74
2022/04/03 05:46:03;;;;;;;2.90;2.40;;;;;;;7.00;68.31;93783.28;6143256;23;20183;-74
2022/04/03 05:48:29;;;;;;;1.87;1.77;;;;;;;7.24;67.71;93818.56;6143148;23;20206;-73
2022/04/03 05:50:56;;;;;;;1.50;1.40;;;;;;;7.29;67.03;93813.53;6143281;23;20175;-73
2022/04/03 05:53:23;;;;;;;4.17;1.80;;;;;;;7.32;66.42;93826.81;6142286;23;20171;-73
2022/04/03 05:55:50;;;;;;;11.67;5.73;;;;;;;7.40;67.09;93831.66;6144401;23;20175;-74
2022/04/03 05:58:16;;;;;;;10.70;7.27;;;;;;;7.41;67.40;93827.28;6145344;23;20232;-74
2022/04/03 06:00:43;;;;;;;5.97;4.03;;;;;;;7.40;67.99;93825.69;6144454;23;20176;-75
2022/04/03 06:03:11;;;;;;;6.33;3.33;;;;;;;7.38;66.89;93840.66;6144423;23;20178;-74
2022/04/03 06:05:38;;;;;;;5.53;3.13;;;;;;;7.39;67.83;93831.88;6144180;23;20649;-73
2022/04/03 06:08:06;;;;;;;4.37;2.80;;;;;;;7.44;66.55;93837.97;6144100;23;20206;-74
2022/04/03 06:10:35;;;;;;;2.87;2.30;;;;;;;7.54;65.24;93847.00;6143246;23;20171;-75
2022/04/03 06:13:03;;;;;;;5.33;4.17;;;;;;;7.62;64.49;93836.38;6144708;23;20214;-74
2022/04/03 06:15:33;;;;;;;5.97;4.60;;;;;;;7.66;65.06;93850.41;6143333;23;20175;-74
2022/04/03 06:18:00;;;;;;;3.43;2.37;;;;;;;7.66;63.35;93861.56;6144786;23;20167;-74
2022/04/03 06:20:29;;;;;;;6.97;4.03;;;;;;;7.77;62.90;93860.00;6143600;23;20159;-74
2022/04/03 06:22:56;;;;;;;3.87;2.60;;;;;;;7.77;62.70;93854.84;6143920;23;20233;-74
2022/04/03 06:25:23;;;;;;;4.30;2.80;;;;;;;7.82;62.80;93853.16;6143470;23;20198;-74
2022/04/03 06:27:51;;;;;;;3.57;1.87;;;;;;;7.85;62.11;93870.81;6145447;23;20207;-74
2022/04/03 06:30:19;;;;;;;2.07;1.60;;;;;;;7.86;62.39;93861.28;6144396;23;20182;-75
2022/04/03 06:32:45;;;;;;;3.43;1.70;;;;;;;7.84;61.47;93869.28;6144574;23;20182;-76
2022/04/03 06:35:13;;;;;;;3.33;1.90;;;;;;;7.88;62.82;93867.81;6145277;23;20175;-75
2022/04/03 06:37:42;;;;;;;2.10;1.27;;;;;;;7.92;62.90;93870.75;6144689;23;20210;-75
2022/04/03 06:40:10;;;;;;;2.10;1.33;;;;;;;7.98;62.12;93867.28;6144019;23;20162;-74
2022/04/03 06:42:37;;;;;;;1.87;1.30;;;;;;;8.12;61.06;93876.41;6143308;23;20244;-74
2022/04/03 06:45:05;;;;;;;1.40;1.17;;;;;;;8.11;61.02;93880.00;6143607;23;20183;-74
2022/04/03 06:47:32;;;;;;;2.43;1.50;;;;;;;8.06;61.81;93873.91;6143968;23;20196;-74
2022/04/03 06:49:59;;;;;;;1.70;1.40;;;;;;;8.15;62.59;93882.94;6144590;23;20583;-73
2022/04/03 06:52:26;;;;;;;4.37;1.60;;;;;;;8.21;62.17;93892.41;6143582;23;20179;-74
2022/04/03 06:54:55;;;;;;;5.60;1.67;;;;;;;8.29;61.01;93886.94;6145467;23;20534;-73
2022/04/03 06:57:22;;;;;;;3.53;1.60;;;;;;;8.35;61.38;93899.00;6144329;23;20168;-74
2022/04/03 06:59:48;;;;;;;2.87;1.60;;;;;;;8.42;60.54;93897.09;6144681;23;20175;-74
2022/04/03 07:02:15;;;;;;;2.53;1.50;;;;;;;8.50;61.38;93900.16;6144298;23;20175;-75
2022/04/03 07:04:42;;;;;;;3.60;2.47;;;;;;;8.54;61.97;93918.63;6144442;23;20183;-76
2022/04/03 07:07:09;;;;;;;2.30;1.73;;;;;;;8.52;61.28;93916.25;6144198;23;20168;-75
2022/04/03 07:09:39;;;;;;;5.27;1.70;;;;;;;8.54;60.44;93932.34;6142760;23;20648;-74
2022/04/03 07:12:08;;;;;;;3.10;2.00;;;;;;;8.53;61.08;93917.03;6144083;23;20198;-74
2022/04/03 07:14:35;;;;;;;3.23;1.80;;;;;;;8.50;60.99;93922.66;6143461;23;20168;-74
2022/04/03 07:17:02;;;;;;;3.20;1.90;;;;;;;8.37;61.18;93904.72;6144495;23;20554;-74
2022/04/03 07:19:29;;;;;;;3.33;2.20;;;;;;;8.51;60.86;93921.66;6143359;23;20171;-75
2022/04/03 07:21:57;;;;;;;4.03;2.57;;;;;;;8.50;61.22;93933.81;6145143;23;20500;-74
2022/04/03 07:24:24;;;;;;;3.57;1.57;;;;;;;8.46;61.45;93947.41;6143875;23;20233;-74
2022/04/03 07:26:51;;;;;;;3.93;1.93;;;;;;;8.36;62.16;93927.25;6144948;23;20236;-73
2022/04/03 07:29:20;;;;;;;10.57;3.47;;;;;;;8.37;63.04;93935.78;6144116;23;20724;-79
2022/04/03 07:31:47;;;;;;;3.83;2.10;;;;;;;8.43;61.25;93942.69;6144656;23;20662;-76
2022/04/03 07:34:14;;;;;;;2.37;1.47;;;;;;;8.50;59.09;93949.34;6144399;23;20240;-76
2022/04/03 07:36:41;;;;;;;2.67;1.60;;;;;;;8.51;58.49;93944.97;6144359;23;20176;-76
2022/04/03 07:39:09;;;;;;;5.47;2.00;;;;;;;8.57;58.87;93942.25;6144251;23;20167;-76
2022/04/03 07:41:36;;;;;;;2.30;1.53;;;;;;;8.72;59.01;93946.22;6143836;23;20565;-76
2022/04/03 07:44:04;;;;;;;3.17;2.33;;;;;;;8.95;58.61;93965.16;6143977;23;20229;-75
2022/04/03 07:46:32;;;;;;;3.30;1.40;;;;;;;8.99;57.08;93955.94;6143708;23;20643;-78
2022/04/03 07:49:00;;;;;;;2.27;1.20;;;;;;;8.98;57.51;93954.34;6142885;23;20207;-76
2022/04/03 07:51:27;;;;;;;2.23;1.20;;;;;;;9.01;58.10;93950.53;6141858;23;20549;-77
2022/04/03 07:53:55;;;;;;;1.73;1.10;;;;;;;9.04;56.79;93966.41;6144740;23;20172;-78
2022/04/03 07:56:22;;;;;;;4.53;1.43;;;;;;;9.07;56.66;93976.34;6143414;23;20229;-76
2022/04/03 07:58:50;;;;;;;3.27;1.60;;;;;;;8.99;57.38;93968.91;6144395;23;20626;-77
2022/04/03 08:01:17;;;;;;;6.47;3.60;;;;;;;8.86;58.10;93971.69;6143950;23;20249;-76
2022/04/03 08:03:45;;;;;;;2.73;1.80;;;;;;;8.95;57.92;93972.16;6143626;23;20244;-76
2022/04/03 08:06:12;;;;;;;4.57;1.60;;;;;;;9.11;58.30;93972.28;6143844;23;20163;-75
2022/04/03 08:08:39;;;;;;;1.30;1.20;;;;;;;9.16;56.85;93968.22;6144312;23;20213;-75
2022/04/03 08:11:06;;;;;;;4.13;1.30;;;;;;;9.09;56.80;93976.88;6143053;23;20174;-76
2022/04/03 08:13:32;;;;;;;1.53;1.20;;;;;;;9.01;55.90;93969.44;6143303;23;20175;-76
2022/04/03 08:16:01;;;;;;;2.63;1.90;;;;;;;9.17;56.68;93982.75;6144540;23;20179;-75
2022/04/03 08:18:28;;;;;;;3.33;2.13;;;;;;;9.31;54.86;93963.38;6142476;23;20167;-75
2022/04/03 08:20:56;;;;;;;2.73;2.00;;;;;;;9.25;52.63;93970.25;6144439;23;20168;-76
2022/04/03 08:23:23;;;;;;;3.10;2.10;;;;;;;9.23;53.33;93948.97;6143747;23;20176;-76
2022/04/03 08:25:50;;;;;;;4.63;2.00;;;;;;;9.28;53.34;93966.41;6144266;23;20178;-76
2022/04/03 08:28:17;;;;;;;3.30;2.10;;;;;;;9.39;53.69;93970.78;6143996;23;20206;-75
2022/04/03 08:30:44;;;;;;;5.53;2.80;;;;;;;9.39;51.98;93975.97;6144419;23;20230;-76
2022/04/03 08:33:11;;;;;;;4.33;2.50;;;;;;;9.39;50.92;93974.19;6143151;23;20167;-76
2022/04/03 08:35:40;;;;;;;6.67;2.03;;;;;;;9.25;52.03;93992.78;6144318;23;20179;-76
2022/04/03 08:38:09;;;;;;;4.70;3.03;;;;;;;9.16;52.52;93971.59;6144691;23;20231;-78
2022/04/03 08:40:36;;;;;;;9.27;2.67;;;;;;;9.28;52.30;93994.94;6143827;23;20167;-77
2022/04/03 08:43:04;;;;;;;3.00;2.20;;;;;;;9.30;52.10;93992.88;6143888;23;20230;-77
2022/04/03 08:45:31;;;;;;;5.43;3.60;;;;;;;9.24;52.78;93983.41;6144500;23;20540;-77
2022/04/03 08:48:00;;;;;;;3.63;2.57;;;;;;;9.17;54.05;94001.69;6144871;23;20207;-77
2022/04/03 08:50:29;;;;;;;5.50;3.60;;;;;;;9.04;53.82;94012.28;6144601;23;20171;-79
2022/04/03 08:53:02;;;;;;;7.33;4.20;;;;;;;9.11;54.56;93985.25;6145464;23;20164;-82
2022/04/03 08:55:31;;;;;;;4.70;2.90;;;;;;;9.24;54.23;93996.38;6144018;23;20221;-79
2022/04/03 08:57:59;;;;;;;4.73;2.60;;;;;;;9.46;53.15;93990.41;6144710;23;20197;-80
2022/04/03 09:00:26;;;;;;;3.03;2.17;;;;;;;9.60;50.69;93990.97;6143965;23;20295;-79
2022/04/03 09:02:53;;;;;;;4.43;2.43;;;;;;;9.56;50.70;93998.41;6145085;23;20178;-79
2022/04/03 09:05:20;;;;;;;5.37;3.30;;;;;;;9.59;50.34;94002.34;6143904;23;20159;-81
2022/04/03 09:08:00;;;;;;;6.33;4.00;;;;;;;9.65;49.93;94015.19;6144445;23;20179;-80
2022/04/03 09:10:28;;;;;;;3.93;1.93;;;;;;;9.80;49.32;94004.34;6144022;23;20518;-80
2022/04/03 09:12:56;;;;;;;5.77;2.00;;;;;;;9.90;48.86;93991.56;6144481;23;20178;-80
2022/04/03 09:15:24;;;;;;;4.13;2.20;;;;;;;10.11;49.66;93998.75;6142127;23;20313;-79
2022/04/03 09:17:53;;;;;;;3.43;2.10;;;;;;;10.27;48.09;94004.25;6144061;23;20630;-80
2022/04/03 09:20:22;;;;;;;4.50;2.60;;;;;;;10.31;49.13;94013.94;6145410;23;20226;-77
2022/04/03 09:22:51;;;;;;;7.50;2.77;;;;;;;10.20;54.25;94020.75;6143123;23;20182;-79
2022/04/03 09:25:24;;;;;;;7.60;2.50;;;;;;;10.11;56.12;94024.69;6143701;23;20178;-78
2022/04/03 09:27:53;;;;;;;4.23;2.53;;;;;;;9.95;57.75;94033.22;6144490;23;20160;-78
2022/04/03 09:30:23;;;;;;;4.87;2.77;;;;;;;9.83;60.61;94032.44;6143950;23;20216;-77
2022/04/03 09:32:51;;;;;;;5.70;2.57;;;;;;;9.58;61.63;94026.72;6145087;23;20167;-76
2022/04/03 09:35:21;;;;;;;6.57;3.53;;;;;;;9.41;64.54;94038.78;6144767;23;20174;-76
2022/04/03 09:38:11;;;;;;;5.57;2.90;;;;;;;9.22;65.92;94011.38;6144337;23;20171;-76
2022/04/03 09:40:40;;;;;;;3.67;2.50;;;;;;;9.24;63.13;94023.09;6144734;23;20533;-76
2022/04/03 09:43:19;;;;;;;7.37;4.90;;;;;;;9.24;63.89;94004.94;6144882;23;20253;-74
2022/04/03 09:45:49;;;;;;;14.70;10.57;;;;;;;9.15;63.26;94008.88;6144840;23;20164;-76
2022/04/03 09:48:34;;;;;;;13.30;10.30;;;;;;;9.44;61.83;94004.59;6143842;23;20204;-77
2022/04/03 09:51:05;;;;;;;11.20;6.10;;;;;;;9.87;59.54;94012.03;6145428;23;20155;-78
2022/04/03 09:53:42;;;;;;;4.23;2.80;;;;;;;9.94;56.78;94020.44;6144730;23;20502;-76
2022/04/03 09:56:10;;;;;;;2.30;1.70;;;;;;;9.91;54.87;94023.50;6144669;23;20217;-76
2022/04/03 09:58:58;;;;;;;3.47;2.57;;;;;;;9.85;54.08;94039.97;6144034;23;20179;-77
2022/04/03 10:01:28;;;;;;;5.13;2.80;;;;;;;9.86;50.27;94042.38;6144696;23;20191;-77
2022/04/03 10:03:55;;;;;;;5.27;2.90;;;;;;;9.88;48.68;94023.97;6145308;23;20677;-76
2022/04/03 10:06:23;;;;;;;3.53;2.57;;;;;;;9.68;53.86;94045.09;6143886;23;20229;-78
2022/04/03 10:08:51;;;;;;;4.73;2.87;;;;;;;9.59;56.74;94043.84;6144500;23;20204;-79
2022/04/03 10:11:19;;;;;;;7.40;3.40;;;;;;;9.73;58.58;94044.38;6143684;23;20176;-76
2022/04/03 10:13:48;;;;;;;3.77;2.63;;;;;;;9.88;59.16;94037.72;6145289;23;20175;-77
2022/04/03 10:16:16;;;;;;;5.13;2.93;;;;;;;10.10;56.10;94056.84;6145185;23;20172;-76
2022/04/03 10:18:45;;;;;;;3.50;2.23;;;;;;;10.23;55.45;94055.84;6145171;23;20168;-76
2022/04/03 10:21:16;;;;;;;2.27;2.07;;;;;;;10.27;56.32;94044.75;6144180;23;20195;-71
2022/04/03 10:23:45;;;;;;;3.93;2.47;;;;;;;10.49;56.01;94046.72;6144997;23;20214;-71
2022/04/03 10:26:16;;;;;;;3.10;2.13;;;;;;;10.66;54.67;94050.16;6144608;23;20168;-72
2022/04/03 10:28:51;;;;;;;3.17;2.47;;;;;;;10.86;54.99;94058.31;6144538;23;20296;-72
2022/04/03 10:31:19;;;;;;;6.87;2.60;;;;;;;10.83;53.05;94059.56;6144849;23;20170;-71
2022/04/03 10:33:50;;;;;;;6.27;2.30;;;;;;;10.70;54.65;94049.47;6145058;23;20560;-71
2022/04/03 10:36:25;;;;;;;4.43;2.90;;;;;;;10.67;53.31;94047.34;6143839;23;20627;-71
2022/04/03 10:39:09;;;;;;;4.77;3.00;;;;;;;11.06;54.15;94050.06;6144887;23;20166;-71
2022/04/03 10:41:39;;;;;;;4.70;3.07;;;;;;;11.15;52.09;94057.25;6143252;23;20160;-71
2022/04/03 10:44:15;;;;;;;4.30;2.60;;;;;;;11.11;52.90;94050.94;6144862;23;20167;-79
2022/04/03 10:47:19;;;;;;;6.73;3.37;;;;;;;10.90;52.36;94056.84;6144653;23;20174;-72
2022/04/03 10:49:51;;;;;;;5.63;3.30;;;;;;;10.51;51.96;94068.84;6125689;23;20253;-71
2022/04/03 10:52:29;;;;;;;6.30;3.00;;;;;;;10.22;53.62;94065.44;6144902;23;20498;-74
2022/04/03 10:55:00;;;;;;;9.23;4.60;;;;;;;10.15;56.91;94069.19;6145086;23;20171;-72
2022/04/03 10:57:41;;;;;;;6.33;2.80;;;;;;;9.92;57.46;94059.63;6143590;23;20517;-71
2022/04/03 11:00:39;;;;;;;3.90;2.90;;;;;;;10.03;58.45;94069.19;6144512;23;20167;-72
2022/04/03 11:03:33;;;;;;;5.77;3.43;;;;;;;10.37;58.54;94064.94;6143967;22;20253;-71
2022/04/03 11:06:32;;;;;;;4.70;3.30;;;;;;;10.59;58.20;94065.88;6144839;23;20172;-71
2022/04/03 11:09:10;;;;;;;20.73;7.63;;;;;;;10.91;57.22;94068.78;6144940;23;20203;-73
2022/04/03 11:11:43;;;;;;;6.37;3.73;;;;;;;11.06;54.18;94069.06;6144572;23;20175;-82
2022/04/03 11:14:12;;;;;;;6.70;3.90;;;;;;;11.68;54.17;94061.97;6146867;23;20167;-83
2022/04/03 11:16:53;;;;;;;6.37;3.07;;;;;;;12.35;52.52;94069.63;6145687;23;20179;-82
2022/04/03 11:19:42;;;;;;;5.67;2.80;;;;;;;12.80;50.46;94071.94;6145980;23;20176;-83
2022/04/03 11:22:15;;;;;;;3.50;2.80;;;;;;;13.00;49.25;94061.72;6146303;23;20191;-81
2022/04/03 11:24:42;;;;;;;5.03;3.23;;;;;;;12.92;48.83;94062.94;6146787;23;20164;-85
2022/04/03 11:27:09;;;;;;;4.93;3.00;;;;;;;12.34;49.96;94065.44;6147573;23;20171;-83
2022/04/03 11:29:37;;;;;;;6.30;3.30;;;;;;;11.88;51.90;94072.69;6146579;23;20195;-82
2022/04/03 11:32:06;;;;;;;4.60;3.00;;;;;;;11.83;51.46;94090.06;6147271;23;20164;-83
2022/04/03 11:34:34;;;;;;;4.53;2.93;;;;;;;11.28;52.69;94087.38;6146256;23;20172;-84
2022/04/03 11:37:02;;;;;;;4.97;2.93;;;;;;;10.90;54.09;94080.22;6146802;23;20251;-83
2022/04/03 11:39:35;;;;;;;3.33;2.67;;;;;;;10.56;54.14;94076.75;6146674;23;20167;-83
2022/04/03 11:42:07;;;;;;;3.33;2.60;;;;;;;9.96;55.91;94071.09;6146629;23;20235;-82
2022/04/03 11:44:35;;;;;;;6.03;3.40;;;;;;;9.85;56.87;94084.09;6145862;23;20156;-82
2022/04/03 11:47:03;;;;;;;7.90;4.43;;;;;;;9.76;59.38;94098.44;6147362;23;20206;-83